createdAt,value
2023-07-29T00:00:21.267Z,19.87
2023-07-29T00:01:21.325Z,19.87
2023-07-29T00:02:21.421Z,19.88
2023-07-29T00:03:21.538Z,19.87
2023-07-29T00:04:21.615Z,19.87
2023-07-29T00:05:21.637Z,19.87
2023-07-29T00:06:21.740Z,19.87
2023-07-29T00:07:21.828Z,19.84
2023-07-29T00:08:21.886Z,19.84
2023-07-29T00:09:22.092Z,19.84
2023-07-29T00:10:22.053Z,19.83
2023-07-29T00:11:22.150Z,19.80
2023-07-29T00:12:22.198Z,19.83
2023-07-29T00:13:22.639Z,19.80
2023-07-29T00:14:22.444Z,19.78
2023-07-29T00:15:22.452Z,19.78
2023-07-29T00:16:22.548Z,19.76
2023-07-29T00:17:22.581Z,19.75
2023-07-29T00:18:22.660Z,19.76
2023-07-29T00:19:22.777Z,19.75
2023-07-29T00:20:22.855Z,19.73
2023-07-29T00:21:22.958Z,19.73
2023-07-29T00:22:23.029Z,19.72
2023-07-29T00:23:23.077Z,19.73
2023-07-29T00:24:23.200Z,19.70
2023-07-29T00:25:23.269Z,19.70
2023-07-29T00:26:23.321Z,19.70
2023-07-29T00:27:23.419Z,19.72
2023-07-29T00:28:23.788Z,19.70
2023-07-29T00:29:23.613Z,19.70
2023-07-29T00:30:23.664Z,19.72
2023-07-29T00:31:23.774Z,19.72
2023-07-29T00:32:23.862Z,19.72
2023-07-29T00:33:23.938Z,19.73
2023-07-29T00:34:24.069Z,19.72
2023-07-29T00:35:24.123Z,19.73
2023-07-29T00:36:24.216Z,19.76
2023-07-29T00:37:24.317Z,19.75
2023-07-29T00:38:24.416Z,19.78
2023-07-29T00:39:24.500Z,19.76
2023-07-29T00:40:24.577Z,19.76
2023-07-29T00:41:24.614Z,19.76
2023-07-29T00:42:24.708Z,19.76
2023-07-29T00:43:24.792Z,19.76
2023-07-29T00:44:24.945Z,19.76
2023-07-29T00:45:24.941Z,19.76
2023-07-29T00:46:25.088Z,19.78
2023-07-29T00:47:25.156Z,19.78
2023-07-29T00:48:25.271Z,19.78
2023-07-29T00:49:25.309Z,19.78
2023-07-29T00:50:25.346Z,19.76
2023-07-29T00:51:25.436Z,19.78
2023-07-29T00:52:25.531Z,19.79
2023-07-29T00:53:25.595Z,19.78
2023-07-29T00:54:25.750Z,19.78
2023-07-29T00:55:25.782Z,19.78
2023-07-29T00:56:25.899Z,19.78
2023-07-29T00:57:25.939Z,19.78
2023-07-29T00:58:26.056Z,19.76
2023-07-29T00:59:26.142Z,19.75
2023-07-29T01:00:26.194Z,19.75
2023-07-29T01:01:26.343Z,19.76
2023-07-29T01:02:26.472Z,19.76
2023-07-29T01:03:26.499Z,19.76
2023-07-29T01:04:26.568Z,19.76
2023-07-29T01:05:26.625Z,19.78
2023-07-29T01:06:26.747Z,19.83
2023-07-29T01:07:26.776Z,19.80
2023-07-29T01:08:26.859Z,19.83
2023-07-29T01:09:26.972Z,19.84
2023-07-29T01:10:27.046Z,19.80
2023-07-29T01:11:27.096Z,19.80
2023-07-29T01:12:27.191Z,19.80
2023-07-29T01:13:27.289Z,19.78
2023-07-29T01:14:27.411Z,19.75
2023-07-29T01:15:27.466Z,19.73
2023-07-29T01:16:27.620Z,19.72
2023-07-29T01:17:27.627Z,19.72
2023-07-29T01:18:27.733Z,19.69
2023-07-29T01:19:27.847Z,19.69
2023-07-29T01:20:27.902Z,19.70
2023-07-29T01:21:27.970Z,19.70
2023-07-29T01:22:28.066Z,19.70
2023-07-29T01:23:28.144Z,19.70
2023-07-29T01:24:28.222Z,19.72
2023-07-29T01:25:28.292Z,19.72
2023-07-29T01:26:28.410Z,19.75
2023-07-29T01:27:28.453Z,19.75
2023-07-29T01:28:28.549Z,19.75
2023-07-29T01:29:28.599Z,19.75
2023-07-29T01:30:28.660Z,19.78
2023-07-29T01:31:28.773Z,19.78
2023-07-29T01:32:28.857Z,19.78
2023-07-29T01:33:28.875Z,19.78
2023-07-29T01:34:29.011Z,19.78
2023-07-29T01:35:29.072Z,19.76
2023-07-29T01:36:29.143Z,19.78
2023-07-29T01:37:29.218Z,19.76
2023-07-29T01:38:29.337Z,19.76
2023-07-29T01:39:29.376Z,19.75
2023-07-29T01:40:29.452Z,19.75
2023-07-29T01:41:29.570Z,19.73
2023-07-29T01:42:30.727Z,19.73
2023-07-29T01:43:29.691Z,19.75
2023-07-29T01:44:29.789Z,19.75
2023-07-29T01:45:29.834Z,19.76
2023-07-29T01:46:29.902Z,19.78
2023-07-29T01:47:29.976Z,19.79
2023-07-29T01:48:30.212Z,19.80
2023-07-29T01:49:30.149Z,19.80
2023-07-29T01:50:30.218Z,19.83
2023-07-29T01:51:30.277Z,19.86
2023-07-29T01:52:30.381Z,19.87
2023-07-29T01:53:30.537Z,19.87
2023-07-29T01:54:30.626Z,19.90
2023-07-29T01:55:30.726Z,19.93
2023-07-29T01:56:30.749Z,19.94
2023-07-29T01:57:30.823Z,19.95
2023-07-29T01:58:30.883Z,19.95
2023-07-29T01:59:31.032Z,19.98
2023-07-29T02:00:31.089Z,20.00
2023-07-29T02:01:31.183Z,20.03
2023-07-29T02:02:31.219Z,20.03
2023-07-29T02:03:31.285Z,20.05
2023-07-29T02:04:31.418Z,20.05
2023-07-29T02:05:31.465Z,20.05
2023-07-29T02:06:31.568Z,20.06
2023-07-29T02:07:31.620Z,20.06
2023-07-29T02:08:31.732Z,20.08
2023-07-29T02:09:31.805Z,20.06
2023-07-29T02:10:31.857Z,20.06
2023-07-29T02:11:31.927Z,20.06
2023-07-29T02:12:32.014Z,20.08
2023-07-29T02:13:32.066Z,20.06
2023-07-29T02:14:32.180Z,20.05
2023-07-29T02:15:32.228Z,20.05
2023-07-29T02:16:32.413Z,20.03
2023-07-29T02:17:32.497Z,20.02
2023-07-29T02:18:32.531Z,20.00
2023-07-29T02:19:32.602Z,19.98
2023-07-29T02:20:32.666Z,19.97
2023-07-29T02:21:32.802Z,19.97
2023-07-29T02:22:32.813Z,19.95
2023-07-29T02:23:32.898Z,19.97
2023-07-29T02:24:33.030Z,19.95
2023-07-29T02:25:33.067Z,19.95
2023-07-29T02:26:33.320Z,19.94
2023-07-29T02:27:33.229Z,19.95
2023-07-29T02:28:33.409Z,19.94
2023-07-29T02:29:33.423Z,19.95
2023-07-29T02:30:33.561Z,19.94
2023-07-29T02:31:33.585Z,19.95
2023-07-29T02:32:33.767Z,19.93
2023-07-29T02:33:33.828Z,19.93
2023-07-29T02:34:34.104Z,19.91
2023-07-29T02:35:33.901Z,19.93
2023-07-29T02:36:34.096Z,19.91
2023-07-29T02:37:34.083Z,19.93
2023-07-29T02:38:34.185Z,19.93
2023-07-29T02:39:34.289Z,19.91
2023-07-29T02:40:34.360Z,19.93
2023-07-29T02:41:34.482Z,19.94
2023-07-29T02:42:34.528Z,19.94
2023-07-29T02:43:34.589Z,19.95
2023-07-29T02:44:34.681Z,19.97
2023-07-29T02:45:34.711Z,19.98
2023-07-29T02:46:35.263Z,19.98
2023-07-29T02:47:34.919Z,20.00
2023-07-29T02:48:34.973Z,20.02
2023-07-29T02:49:35.101Z,20.02
2023-07-29T02:50:35.168Z,20.02
2023-07-29T02:51:35.225Z,20.02
2023-07-29T02:52:35.345Z,20.02
2023-07-29T02:53:35.418Z,20.02
2023-07-29T02:54:35.589Z,20.00
2023-07-29T02:55:35.599Z,20.00
2023-07-29T02:56:36.146Z,19.98
2023-07-29T02:57:35.768Z,20.00
2023-07-29T02:58:35.867Z,19.97
2023-07-29T02:59:35.960Z,19.97
2023-07-29T03:00:36.026Z,19.97
2023-07-29T03:01:36.104Z,19.97
2023-07-29T03:02:36.253Z,19.97
2023-07-29T03:03:36.324Z,19.97
2023-07-29T03:04:36.402Z,19.95
2023-07-29T03:05:36.462Z,19.97
2023-07-29T03:06:36.822Z,19.95
2023-07-29T03:07:36.636Z,19.97
2023-07-29T03:08:36.755Z,19.98
2023-07-29T03:09:36.851Z,19.97
2023-07-29T03:10:36.909Z,19.97
2023-07-29T03:11:37.064Z,19.97
2023-07-29T03:12:37.143Z,19.97
2023-07-29T03:13:37.252Z,19.95
2023-07-29T03:14:37.267Z,19.95
2023-07-29T03:15:37.391Z,19.95
2023-07-29T03:16:37.633Z,19.95
2023-07-29T03:17:37.588Z,19.95
2023-07-29T03:18:37.654Z,19.95
2023-07-29T03:19:37.743Z,19.97
2023-07-29T03:20:37.792Z,19.95
2023-07-29T03:21:37.856Z,19.95
2023-07-29T03:22:37.971Z,19.95
2023-07-29T03:23:38.104Z,19.95
2023-07-29T03:24:38.161Z,19.94
2023-07-29T03:25:38.264Z,19.94
2023-07-29T03:26:38.664Z,19.94
2023-07-29T03:27:38.400Z,19.93
2023-07-29T03:28:38.413Z,19.93
2023-07-29T03:29:38.509Z,19.93
2023-07-29T03:30:38.628Z,19.90
2023-07-29T03:31:38.721Z,19.91
2023-07-29T03:32:38.793Z,19.90
2023-07-29T03:33:38.906Z,19.90
2023-07-29T03:34:38.958Z,19.88
2023-07-29T03:35:38.970Z,19.88
2023-07-29T03:36:39.216Z,19.87
2023-07-29T03:37:39.132Z,19.87
2023-07-29T03:38:39.197Z,19.87
2023-07-29T03:39:39.363Z,19.86
2023-07-29T03:40:39.449Z,19.86
2023-07-29T03:41:39.460Z,19.86
2023-07-29T03:42:39.565Z,19.84
2023-07-29T04:01:20.403Z,19.13
2023-07-29T04:16:02.020Z,18.95
2023-07-29T04:23:25.541Z,18.86
2023-07-29T04:24:12.234Z,18.84
2023-07-29T04:25:12.398Z,18.86
2023-07-29T04:26:12.762Z,18.86
2023-07-29T04:27:12.554Z,18.91
2023-07-29T04:28:12.666Z,18.97
2023-07-29T04:29:12.692Z,18.98
2023-07-29T04:30:12.987Z,19.01
2023-07-29T04:31:24.962Z,19.02
2023-07-29T04:36:05.638Z,18.90
2023-07-29T04:42:23.921Z,18.74
2023-07-29T04:46:54.790Z,18.67
2023-07-29T04:47:52.674Z,18.67
2023-07-29T05:00:19.101Z,18.59
2023-07-29T05:07:35.376Z,18.43
2023-07-29T05:21:51.406Z,18.34
2023-07-29T05:40:46.597Z,18.50
2023-07-29T05:41:45.198Z,18.55
2023-07-29T05:46:13.751Z,18.64
2023-07-29T05:46:51.728Z,18.65
2023-07-29T05:50:19.860Z,18.67
2023-07-29T06:01:17.757Z,18.73
2023-07-29T06:06:49.811Z,18.72
2023-07-29T06:07:49.282Z,18.72
2023-07-29T06:08:48.287Z,18.73
2023-07-29T06:09:48.353Z,18.79
2023-07-29T06:38:53.686Z,18.57
2023-07-29T06:46:20.209Z,18.55
2023-07-29T06:47:20.269Z,18.58
2023-07-29T06:48:21.263Z,18.62
2023-07-29T06:49:20.219Z,18.68
2023-07-29T06:50:20.340Z,18.73
2023-07-29T06:51:20.460Z,18.82
2023-07-29T06:57:52.872Z,18.84
2023-07-29T06:58:55.521Z,18.84
2023-07-29T07:32:16.352Z,18.68
2023-07-29T07:33:17.028Z,18.70
2023-07-29T07:34:16.495Z,18.73
2023-07-29T07:35:16.540Z,18.79
2023-07-29T07:53:04.060Z,18.91
2023-07-29T07:54:05.758Z,18.92
2023-07-29T07:55:04.249Z,18.94
2023-07-29T07:56:04.425Z,19.02
2023-07-29T08:07:17.165Z,18.99
2023-07-29T08:11:27.413Z,19.05
2023-07-29T08:24:55.953Z,19.20
2023-07-29T08:34:19.754Z,19.28
2023-07-29T09:03:25.163Z,19.32
2023-07-29T09:04:26.108Z,19.36
2023-07-29T09:05:26.050Z,19.40
2023-07-29T09:06:32.256Z,19.46
2023-07-29T09:24:46.533Z,19.66
2023-07-29T09:25:46.769Z,19.69
2023-07-29T09:26:46.731Z,19.75
2023-07-29T09:27:46.785Z,19.83
2023-07-29T09:28:46.896Z,19.90
2023-07-29T09:29:46.954Z,19.97
2023-07-29T09:30:47.154Z,20.06
2023-07-29T09:31:47.135Z,20.12
2023-07-29T09:32:47.246Z,20.21
2023-07-29T09:33:47.280Z,20.25
2023-07-29T09:34:47.372Z,20.31
2023-07-29T09:35:47.390Z,20.39
2023-07-29T09:36:47.551Z,20.43
2023-07-29T09:37:47.627Z,20.49
2023-07-29T09:38:47.853Z,20.54
2023-07-29T09:39:47.789Z,20.59
2023-07-29T09:40:47.854Z,20.65
2023-07-29T09:41:49.369Z,20.68
2023-07-29T09:42:47.979Z,20.74
2023-07-29T09:43:48.119Z,20.80
2023-07-29T09:44:48.128Z,20.84
2023-07-29T09:45:48.237Z,20.90
2023-07-29T09:46:48.527Z,20.95
2023-07-29T09:47:48.414Z,21.02
2023-07-29T09:48:48.461Z,21.06
2023-07-29T09:49:48.574Z,21.11
2023-07-29T09:50:48.609Z,21.17
2023-07-29T09:51:48.719Z,21.23
2023-07-29T09:52:48.788Z,21.27
2023-07-29T09:53:48.882Z,21.30
2023-07-29T09:54:48.950Z,21.35
2023-07-29T09:55:49.048Z,21.38
2023-07-29T09:56:49.092Z,21.41
2023-07-29T09:57:49.192Z,21.44
2023-07-29T09:58:49.281Z,21.46
2023-07-29T09:59:49.492Z,21.48
2023-07-29T10:00:49.445Z,21.50
2023-07-29T10:01:49.574Z,21.54
2023-07-29T10:02:49.684Z,21.57
2023-07-29T10:03:49.781Z,21.61
2023-07-29T10:04:49.771Z,21.66
2023-07-29T10:05:49.813Z,21.71
2023-07-29T10:06:49.863Z,21.75
2023-07-29T10:07:49.955Z,21.79
2023-07-29T10:08:50.060Z,21.85
2023-07-29T10:09:50.220Z,21.91
2023-07-29T10:10:50.242Z,21.95
2023-07-29T10:11:50.342Z,21.99
2023-07-29T10:12:50.404Z,22.06
2023-07-29T10:14:04.337Z,22.13
2023-07-29T10:14:50.573Z,22.16
2023-07-29T10:15:50.655Z,22.20
2023-07-29T10:16:50.693Z,22.25
2023-07-29T10:17:50.851Z,22.28
2023-07-29T10:18:50.878Z,22.28
2023-07-29T10:19:51.032Z,22.31
2023-07-29T10:20:51.065Z,22.31
2023-07-29T10:21:51.162Z,22.32
2023-07-29T10:22:51.230Z,22.35
2023-07-29T10:23:51.275Z,22.38
2023-07-29T10:24:51.377Z,22.41
2023-07-29T10:25:51.671Z,22.43
2023-07-29T10:26:51.571Z,22.46
2023-07-29T10:27:51.691Z,22.49
2023-07-29T10:28:51.814Z,22.50
2023-07-29T10:29:51.968Z,22.50
2023-07-29T10:30:51.916Z,22.52
2023-07-29T10:31:52.060Z,22.52
2023-07-29T10:32:52.141Z,22.53
2023-07-29T10:34:56.393Z,22.53
2023-07-29T10:35:57.095Z,22.56
2023-07-29T10:36:57.322Z,22.56
2023-07-29T10:37:57.297Z,22.56
2023-07-29T10:38:58.411Z,22.57
2023-07-29T10:39:57.550Z,22.59
2023-07-29T10:42:53.252Z,22.50
2023-07-29T10:43:53.970Z,22.47
2023-07-29T10:44:55.378Z,22.46
2023-07-29T10:46:06.619Z,22.46
2023-07-29T10:46:54.296Z,22.50
2023-07-29T10:47:54.397Z,22.56
2023-07-29T10:48:54.397Z,22.60
2023-07-29T10:49:54.455Z,22.67
2023-07-29T10:50:54.631Z,22.69
2023-07-29T10:51:54.813Z,22.72
2023-07-29T10:52:54.756Z,22.78
2023-07-29T10:53:54.840Z,22.86
2023-07-29T10:58:02.654Z,22.82
2023-07-29T10:59:00.981Z,22.80
2023-07-29T11:02:12.803Z,22.82
2023-07-29T11:03:11.971Z,22.84
2023-07-29T11:09:04.068Z,22.82
2023-07-29T11:10:05.576Z,22.82
2023-07-29T11:11:04.445Z,22.82
2023-07-29T11:12:04.613Z,22.84
2023-07-29T11:21:21.871Z,22.82
2023-07-29T11:33:47.428Z,22.87
2023-07-29T11:34:48.470Z,22.92
2023-07-29T11:43:08.353Z,23.24
2023-07-29T11:44:09.447Z,23.27
2023-07-29T11:45:09.651Z,23.35
2023-07-29T11:52:36.652Z,23.57
2023-07-29T11:53:38.434Z,23.57
2023-07-29T11:54:37.595Z,23.62
2023-07-29T11:55:38.462Z,23.68
2023-07-29T11:56:38.018Z,23.72
2023-07-29T11:57:37.807Z,23.79
2023-07-29T11:58:37.826Z,23.83
2023-07-29T11:59:37.885Z,23.89
2023-07-29T12:00:38.025Z,23.95
2023-07-29T12:01:38.037Z,24.02
2023-07-29T12:02:38.228Z,24.07
2023-07-29T12:03:38.856Z,24.13
2023-07-29T12:04:39.050Z,24.17
2023-07-29T12:05:38.383Z,24.22
2023-07-29T12:06:38.792Z,24.27
2023-07-29T12:07:38.542Z,24.34
2023-07-29T12:08:38.665Z,24.35
2023-07-29T12:09:38.695Z,24.41
2023-07-29T12:10:38.798Z,24.47
2023-07-29T12:11:39.504Z,24.53
2023-07-29T12:12:49.184Z,24.57
2023-07-29T12:13:39.226Z,24.60
2023-07-29T12:14:39.177Z,24.67
2023-07-29T12:15:39.177Z,24.68
2023-07-29T12:16:39.765Z,24.71
2023-07-29T12:17:39.603Z,24.75
2023-07-29T12:18:40.167Z,24.73
2023-07-29T12:19:40.504Z,24.77
2023-07-29T12:20:39.597Z,24.80
2023-07-29T12:21:39.774Z,24.83
2023-07-29T12:22:39.775Z,24.87
2023-07-29T12:23:40.001Z,24.87
2023-07-29T12:24:41.098Z,24.88
2023-07-29T12:25:42.398Z,24.90
2023-07-29T12:26:40.130Z,24.90
2023-07-29T12:27:40.157Z,24.90
2023-07-29T12:28:43.718Z,24.88
2023-07-29T12:29:40.343Z,24.88
2023-07-29T12:30:46.989Z,24.90
2023-07-29T12:31:40.491Z,24.90
2023-07-29T12:32:40.674Z,24.88
2023-07-29T12:33:40.706Z,24.88
2023-07-29T12:34:40.852Z,24.85
2023-07-29T12:35:45.208Z,24.85
2023-07-29T12:36:47.526Z,24.85
2023-07-29T12:37:42.212Z,24.85
2023-07-29T12:38:41.103Z,24.83
2023-07-29T12:39:41.241Z,24.87
2023-07-29T12:41:06.159Z,24.87
2023-07-29T12:41:41.395Z,24.87
2023-07-29T12:42:42.811Z,24.87
2023-07-29T12:43:41.501Z,24.87
2023-07-29T12:44:41.766Z,24.87
2023-07-29T12:45:51.235Z,24.85
2023-07-29T12:46:41.818Z,24.83
2023-07-29T12:47:49.807Z,24.82
2023-07-29T12:48:42.110Z,24.80
2023-07-29T12:49:42.168Z,24.75
2023-07-29T12:50:41.802Z,24.73
2023-07-29T12:51:42.213Z,24.69
2023-07-29T12:53:54.046Z,24.57
2023-07-29T12:55:15.285Z,24.54
2023-07-29T12:55:55.279Z,24.50
2023-07-29T12:56:58.315Z,24.44
2023-07-29T12:57:55.296Z,24.44
2023-07-29T12:58:55.350Z,24.44
2023-07-29T12:59:55.495Z,24.44
2023-07-29T13:00:55.683Z,24.42
2023-07-29T13:01:55.674Z,24.41
2023-07-29T13:02:59.062Z,24.41
2023-07-29T13:03:56.103Z,24.39
2023-07-29T13:04:55.953Z,24.41
2023-07-29T13:05:56.050Z,24.38
2023-07-29T13:06:56.039Z,24.38
2023-07-29T13:07:56.167Z,24.38
2023-07-29T13:08:57.396Z,24.37
2023-07-29T13:09:56.407Z,24.37
2023-07-29T13:10:56.463Z,24.34
2023-07-29T13:11:56.496Z,24.32
2023-07-29T13:12:56.521Z,24.27
2023-07-29T13:13:56.599Z,24.27
2023-07-29T13:14:56.691Z,24.24
2023-07-29T13:15:56.763Z,24.24
2023-07-29T13:16:56.850Z,24.22
2023-07-29T13:17:56.913Z,24.20
2023-07-29T13:18:57.020Z,24.19
2023-07-29T13:19:57.105Z,24.19
2023-07-29T13:20:57.136Z,24.16
2023-07-29T13:21:57.251Z,24.13
2023-07-29T13:22:57.290Z,24.12
2023-07-29T13:23:57.422Z,24.08
2023-07-29T13:24:57.553Z,24.04
2023-07-29T13:25:57.583Z,24.01
2023-07-29T13:26:57.702Z,24.00
2023-07-29T13:27:57.806Z,23.98
2023-07-29T13:28:57.814Z,23.94
2023-07-29T13:29:57.974Z,23.94
2023-07-29T13:30:58.021Z,23.89
2023-07-29T13:31:58.130Z,23.86
2023-07-29T13:32:58.252Z,23.86
2023-07-29T13:33:58.302Z,23.85
2023-07-29T13:34:58.398Z,23.83
2023-07-29T13:35:58.471Z,23.82
2023-07-29T13:36:58.600Z,23.80
2023-07-29T13:37:58.636Z,23.77
2023-07-29T13:38:58.720Z,23.77
2023-07-29T13:39:58.897Z,23.76
2023-07-29T13:40:58.891Z,23.72
2023-07-29T13:41:58.967Z,23.72
2023-07-29T13:42:59.081Z,23.70
2023-07-29T13:43:59.116Z,23.68
2023-07-29T13:44:59.330Z,23.65
2023-07-29T13:45:59.370Z,23.65
2023-07-29T13:46:59.418Z,23.64
2023-07-29T13:47:59.540Z,23.64
2023-07-29T13:48:59.548Z,23.61
2023-07-29T13:49:59.697Z,23.60
2023-07-29T13:50:59.715Z,23.57
2023-07-29T13:51:59.803Z,23.53
2023-07-29T13:52:59.878Z,23.52
2023-07-29T13:53:59.939Z,23.47
2023-07-29T13:55:00.138Z,23.45
2023-07-29T13:56:00.277Z,23.40
2023-07-29T13:57:00.250Z,23.39
2023-07-29T13:58:00.373Z,23.34
2023-07-29T13:59:00.490Z,23.32
2023-07-29T14:00:00.547Z,23.31
2023-07-29T14:01:00.720Z,23.27
2023-07-29T14:02:00.678Z,23.26
2023-07-29T14:03:00.823Z,23.26
2023-07-29T14:04:00.918Z,23.24
2023-07-29T14:05:01.144Z,23.22
2023-07-29T14:06:01.072Z,23.20
2023-07-29T14:07:01.170Z,23.19
2023-07-29T14:08:01.203Z,23.17
2023-07-29T14:09:01.274Z,23.11
2023-07-29T14:10:02.407Z,23.08
2023-07-29T14:11:01.416Z,23.05
2023-07-29T14:12:01.496Z,22.99
2023-07-29T14:13:01.602Z,22.93
2023-07-29T14:14:01.625Z,22.89
2023-07-29T14:15:01.781Z,22.83
2023-07-29T14:16:01.887Z,22.80
2023-07-29T14:17:01.932Z,22.75
2023-07-29T14:18:01.966Z,22.72
2023-07-29T14:19:02.052Z,22.69
2023-07-29T14:20:02.264Z,22.65
2023-07-29T14:21:02.261Z,22.59
2023-07-29T14:22:02.330Z,22.54
2023-07-29T14:23:02.460Z,22.50
2023-07-29T14:24:02.631Z,22.47
2023-07-29T14:25:02.627Z,22.43
2023-07-29T14:26:02.650Z,22.38
2023-07-29T14:27:02.784Z,22.37
2023-07-29T14:28:02.924Z,22.32
2023-07-29T14:29:02.958Z,22.28
2023-07-29T14:30:03.151Z,22.27
2023-07-29T14:31:03.186Z,22.25
2023-07-29T14:32:03.223Z,22.22
2023-07-29T14:33:03.291Z,22.19
2023-07-29T14:34:03.320Z,22.16
2023-07-29T14:35:03.411Z,22.14
2023-07-29T14:36:03.472Z,22.13
2023-07-29T14:37:03.634Z,22.10
2023-07-29T14:38:03.671Z,22.07
2023-07-29T14:39:03.720Z,22.02
2023-07-29T14:40:03.838Z,21.99
2023-07-29T14:41:03.935Z,21.97
2023-07-29T14:42:04.005Z,21.94
2023-07-29T14:43:04.084Z,21.90
2023-07-29T14:44:04.153Z,21.88
2023-07-29T14:45:04.246Z,21.85
2023-07-29T14:46:04.338Z,21.83
2023-07-29T14:47:04.450Z,21.81
2023-07-29T14:48:05.454Z,21.79
2023-07-29T14:49:04.604Z,21.76
2023-07-29T14:50:04.716Z,21.74
2023-07-29T14:51:04.800Z,21.72
2023-07-29T14:52:04.856Z,21.69
2023-07-29T14:53:04.945Z,21.63
2023-07-29T14:54:04.988Z,21.61
2023-07-29T14:55:05.139Z,21.59
2023-07-29T14:56:05.259Z,21.60
2023-07-29T14:57:05.262Z,21.59
2023-07-29T14:58:05.362Z,21.59
2023-07-29T14:59:05.418Z,21.59
2023-07-29T15:00:05.527Z,21.57
2023-07-29T15:01:05.584Z,21.56
2023-07-29T15:02:05.722Z,21.54
2023-07-29T15:03:05.818Z,21.53
2023-07-29T15:04:05.847Z,21.53
2023-07-29T15:05:05.948Z,21.53
2023-07-29T15:06:06.010Z,21.51
2023-07-29T15:07:06.056Z,21.51
2023-07-29T15:08:06.163Z,21.50
2023-07-29T15:09:06.224Z,21.50
2023-07-29T15:10:06.338Z,21.48
2023-07-29T15:11:06.409Z,21.48
2023-07-29T15:12:06.523Z,21.50
2023-07-29T15:13:06.559Z,21.48
2023-07-29T15:14:06.667Z,21.46
2023-07-29T15:15:06.772Z,21.45
2023-07-29T15:16:06.872Z,21.42
2023-07-29T15:17:07.001Z,21.42
2023-07-29T15:18:07.035Z,21.41
2023-07-29T15:19:07.087Z,21.39
2023-07-29T15:20:07.160Z,21.39
2023-07-29T15:21:07.223Z,21.36
2023-07-29T15:22:07.293Z,21.36
2023-07-29T15:23:07.439Z,21.35
2023-07-29T15:24:07.481Z,21.34
2023-07-29T15:25:07.587Z,21.32
2023-07-29T15:26:07.670Z,21.30
2023-07-29T16:33:09.308Z,19.54
2023-07-29T16:56:08.551Z,19.58
2023-07-29T17:24:34.152Z,19.43
2023-07-29T17:25:22.542Z,19.47
2023-07-29T17:26:22.492Z,19.53
2023-07-29T17:32:45.632Z,19.55
2023-07-29T20:46:35.456Z,19.13
2023-07-29T20:47:36.051Z,19.14
2023-07-29T21:44:28.731Z,18.97
2023-07-29T22:06:34.944Z,18.97
2023-07-29T22:20:09.527Z,19.08
2023-07-29T22:22:41.089Z,19.13
2023-07-29T22:23:54.101Z,19.11
2023-07-29T22:24:52.821Z,19.14
2023-07-29T22:50:25.165Z,19.02
2023-07-29T22:51:37.063Z,19.08
2023-07-29T23:40:21.917Z,19.01
